sensor_id;sensor_type;location;lat;lon;timestamp;pressure;altitude;pressure_sealevel;temperature;humidity
84578;BME280;74803;44.756;19.218;2024-02-26T00:02:15;99732.00;;;18.90;47.51
84578;BME280;74803;44.756;19.218;2024-02-26T00:04:40;99724.47;;;20.19;44.71
84578;BME280;74803;44.756;19.218;2024-02-26T00:07:06;99717.63;;;19.45;45.91
84578;BME280;74803;44.756;19.218;2024-02-26T00:09:32;99722.28;;;18.56;47.77
84578;BME280;74803;44.756;19.218;2024-02-26T00:12:04;99721.13;;;18.52;47.65
84578;BME280;74803;44.756;19.218;2024-02-26T00:14:31;99718.19;;;18.07;49.24
84578;BME280;74803;44.756;19.218;2024-02-26T00:16:56;99725.69;;;17.62;49.82
84578;BME280;74803;44.756;19.218;2024-02-26T00:19:22;99720.84;;;17.77;50.37
84578;BME280;74803;44.756;19.218;2024-02-26T00:21:48;99713.97;;;18.06;49.05
84578;BME280;74803;44.756;19.218;2024-02-26T00:24:13;99707.94;;;18.40;47.57
84578;BME280;74803;44.756;19.218;2024-02-26T00:26:39;99708.75;;;19.11;46.88
84578;BME280;74803;44.756;19.218;2024-02-26T00:29:05;99719.28;;;16.67;51.36
84578;BME280;74803;44.756;19.218;2024-02-26T00:31:31;99713.94;;;16.24;53.43
84578;BME280;74803;44.756;19.218;2024-02-26T00:33:56;99723.78;;;16.53;52.27
84578;BME280;74803;44.756;19.218;2024-02-26T00:36:22;99717.69;;;17.02;51.55
84578;BME280;74803;44.756;19.218;2024-02-26T00:38:47;99722.56;;;16.06;53.36
84578;BME280;74803;44.756;19.218;2024-02-26T00:41:19;99726.56;;;15.77;55.07
84578;BME280;74803;44.756;19.218;2024-02-26T00:43:46;99725.41;;;16.29;53.27
84578;BME280;74803;44.756;19.218;2024-02-26T00:46:11;99714.22;;;16.90;51.51
84578;BME280;74803;44.756;19.218;2024-02-26T00:48:37;99709.16;;;16.89;51.13
84578;BME280;74803;44.756;19.218;2024-02-26T00:51:03;99700.25;;;17.62;49.72
84578;BME280;74803;44.756;19.218;2024-02-26T00:53:33;99682.91;;;18.26;47.86
84578;BME280;74803;44.756;19.218;2024-02-26T00:55:59;99688.94;;;18.03;48.04
84578;BME280;74803;44.756;19.218;2024-02-26T00:58:27;99687.97;;;17.86;48.71
84578;BME280;74803;44.756;19.218;2024-02-26T01:00:52;99691.31;;;17.93;48.62
84578;BME280;74803;44.756;19.218;2024-02-26T01:03:19;99681.34;;;17.84;48.29
84578;BME280;74803;44.756;19.218;2024-02-26T01:05:45;99674.78;;;17.63;49.41
84578;BME280;74803;44.756;19.218;2024-02-26T01:08:11;99680.41;;;17.78;48.67
84578;BME280;74803;44.756;19.218;2024-02-26T01:10:36;99677.13;;;17.83;48.39
84578;BME280;74803;44.756;19.218;2024-02-26T01:13:02;99684.06;;;17.65;48.93
84578;BME280;74803;44.756;19.218;2024-02-26T01:15:28;99692.72;;;17.48;48.64
84578;BME280;74803;44.756;19.218;2024-02-26T01:17:53;99689.78;;;17.26;50.24
84578;BME280;74803;44.756;19.218;2024-02-26T01:20:19;99694.28;;;17.37;49.64
84578;BME280;74803;44.756;19.218;2024-02-26T01:22:45;99680.16;;;16.40;51.89
84578;BME280;74803;44.756;19.218;2024-02-26T01:25:12;99677.75;;;17.00;51.10
84578;BME280;74803;44.756;19.218;2024-02-26T01:27:38;99672.25;;;17.38;49.78
84578;BME280;74803;44.756;19.218;2024-02-26T01:30:04;99677.41;;;16.54;50.91
84578;BME280;74803;44.756;19.218;2024-02-26T01:32:30;99672.72;;;16.62;51.84
84578;BME280;74803;44.756;19.218;2024-02-26T01:34:56;99676.00;;;16.33;51.67
84578;BME280;74803;44.756;19.218;2024-02-26T01:37:22;99656.81;;;15.45;55.26
84578;BME280;74803;44.756;19.218;2024-02-26T01:39:47;99655.88;;;16.27;53.27
84578;BME280;74803;44.756;19.218;2024-02-26T01:42:13;99657.78;;;16.38;52.80
84578;BME280;74803;44.756;19.218;2024-02-26T01:44:39;99645.88;;;15.92;53.48
84578;BME280;74803;44.756;19.218;2024-02-26T01:47:07;99644.88;;;16.61;51.62
84578;BME280;74803;44.756;19.218;2024-02-26T01:49:34;99641.44;;;16.97;50.33
84578;BME280;74803;44.756;19.218;2024-02-26T01:52:01;99632.25;;;17.24;49.58
84578;BME280;74803;44.756;19.218;2024-02-26T01:54:29;99633.16;;;16.39;52.23
84578;BME280;74803;44.756;19.218;2024-02-26T01:56:55;99647.03;;;16.46;52.19
84578;BME280;74803;44.756;19.218;2024-02-26T01:59:22;99649.69;;;16.39;52.31
84578;BME280;74803;44.756;19.218;2024-02-26T02:01:51;99657.34;;;16.84;50.78
84578;BME280;74803;44.756;19.218;2024-02-26T02:04:19;99649.91;;;16.38;52.12
84578;BME280;74803;44.756;19.218;2024-02-26T02:06:45;99657.22;;;16.11;53.09
84578;BME280;74803;44.756;19.218;2024-02-26T02:09:11;99662.25;;;16.62;52.04
84578;BME280;74803;44.756;19.218;2024-02-26T02:11:37;99665.44;;;16.39;52.15
84578;BME280;74803;44.756;19.218;2024-02-26T02:14:03;99668.06;;;17.01;50.70
84578;BME280;74803;44.756;19.218;2024-02-26T02:16:29;99658.81;;;16.80;50.87
84578;BME280;74803;44.756;19.218;2024-02-26T02:18:55;99662.66;;;16.59;50.61
84578;BME280;74803;44.756;19.218;2024-02-26T02:21:20;99654.72;;;16.66;51.39
84578;BME280;74803;44.756;19.218;2024-02-26T02:23:46;99649.03;;;16.69;50.48
84578;BME280;74803;44.756;19.218;2024-02-26T02:26:13;99647.66;;;17.33;49.59
84578;BME280;74803;44.756;19.218;2024-02-26T02:28:39;99653.47;;;17.71;48.70
84578;BME280;74803;44.756;19.218;2024-02-26T02:31:05;99667.53;;;17.28;49.76
84578;BME280;74803;44.756;19.218;2024-02-26T02:33:31;99664.63;;;16.64;51.08
84578;BME280;74803;44.756;19.218;2024-02-26T02:35:56;99663.88;;;16.57;50.67
84578;BME280;74803;44.756;19.218;2024-02-26T02:38:23;99670.75;;;16.76;51.65
84578;BME280;74803;44.756;19.218;2024-02-26T02:40:51;99679.56;;;16.38;51.68
84578;BME280;74803;44.756;19.218;2024-02-26T02:43:17;99666.13;;;16.28;52.77
84578;BME280;74803;44.756;19.218;2024-02-26T02:45:43;99656.22;;;15.81;53.42
84578;BME280;74803;44.756;19.218;2024-02-26T02:48:10;99656.19;;;17.16;50.39
84578;BME280;74803;44.756;19.218;2024-02-26T02:50:36;99642.50;;;16.96;50.33
84578;BME280;74803;44.756;19.218;2024-02-26T02:53:01;99643.19;;;17.21;49.82
84578;BME280;74803;44.756;19.218;2024-02-26T02:55:27;99650.53;;;18.26;47.38
84578;BME280;74803;44.756;19.218;2024-02-26T02:57:53;99648.97;;;16.75;49.88
84578;BME280;74803;44.756;19.218;2024-02-26T03:00:19;99644.38;;;16.03;52.16
84578;BME280;74803;44.756;19.218;2024-02-26T03:02:45;99640.19;;;16.20;52.62
84578;BME280;74803;44.756;19.218;2024-02-26T03:05:11;99638.72;;;16.92;50.66
84578;BME280;74803;44.756;19.218;2024-02-26T03:07:37;99639.84;;;15.92;52.17
84578;BME280;74803;44.756;19.218;2024-02-26T03:10:03;99656.28;;;16.24;52.19
84578;BME280;74803;44.756;19.218;2024-02-26T03:12:29;99642.94;;;16.50;51.73
84578;BME280;74803;44.756;19.218;2024-02-26T03:14:55;99637.47;;;16.76;51.14
84578;BME280;74803;44.756;19.218;2024-02-26T03:17:21;99632.16;;;16.40;51.84
84578;BME280;74803;44.756;19.218;2024-02-26T03:19:46;99629.88;;;16.68;51.29
84578;BME280;74803;44.756;19.218;2024-02-26T03:22:15;99633.25;;;16.75;50.83
84578;BME280;74803;44.756;19.218;2024-02-26T03:24:41;99629.63;;;16.52;52.39
84578;BME280;74803;44.756;19.218;2024-02-26T03:27:06;99635.78;;;16.64;51.31
84578;BME280;74803;44.756;19.218;2024-02-26T03:29:38;99639.41;;;16.38;52.21
84578;BME280;74803;44.756;19.218;2024-02-26T03:32:04;99642.44;;;16.17;52.66
84578;BME280;74803;44.756;19.218;2024-02-26T03:34:31;99643.78;;;16.69;51.18
84578;BME280;74803;44.756;19.218;2024-02-26T03:36:57;99646.69;;;16.97;50.42
84578;BME280;74803;44.756;19.218;2024-02-26T03:39:22;99636.22;;;16.79;50.99
84578;BME280;74803;44.756;19.218;2024-02-26T03:41:48;99637.19;;;16.66;51.35
84578;BME280;74803;44.756;19.218;2024-02-26T03:44:14;99633.56;;;16.97;50.71
84578;BME280;74803;44.756;19.218;2024-02-26T03:46:40;99627.03;;;17.36;49.42
84578;BME280;74803;44.756;19.218;2024-02-26T03:49:08;99628.78;;;16.94;50.91
84578;BME280;74803;44.756;19.218;2024-02-26T03:51:34;99632.59;;;17.28;49.46
84578;BME280;74803;44.756;19.218;2024-02-26T03:54:00;99635.28;;;16.92;50.43
84578;BME280;74803;44.756;19.218;2024-02-26T03:56:26;99616.03;;;17.27;49.49
84578;BME280;74803;44.756;19.218;2024-02-26T03:58:52;99629.56;;;17.13;50.28
84578;BME280;74803;44.756;19.218;2024-02-26T04:01:18;99619.16;;;16.88;50.78
84578;BME280;74803;44.756;19.218;2024-02-26T04:03:44;99618.66;;;16.61;51.86
84578;BME280;74803;44.756;19.218;2024-02-26T04:06:10;99618.75;;;16.30;53.29
84578;BME280;74803;44.756;19.218;2024-02-26T04:08:40;99611.84;;;16.54;51.98
84578;BME280;74803;44.756;19.218;2024-02-26T04:11:05;99608.66;;;16.52;51.94
84578;BME280;74803;44.756;19.218;2024-02-26T04:13:36;99612.47;;;15.57;54.01
84578;BME280;74803;44.756;19.218;2024-02-26T04:16:06;99621.84;;;15.95;53.68
84578;BME280;74803;44.756;19.218;2024-02-26T04:18:32;99614.03;;;15.64;54.07
84578;BME280;74803;44.756;19.218;2024-02-26T04:20:57;99616.09;;;15.55;54.23
84578;BME280;74803;44.756;19.218;2024-02-26T04:23:23;99625.72;;;16.18;53.48
84578;BME280;74803;44.756;19.218;2024-02-26T04:25:49;99622.38;;;16.04;53.52
84578;BME280;74803;44.756;19.218;2024-02-26T04:28:14;99617.53;;;15.51;53.51
84578;BME280;74803;44.756;19.218;2024-02-26T04:30:40;99620.03;;;17.00;51.54
84578;BME280;74803;44.756;19.218;2024-02-26T04:33:06;99614.34;;;17.03;50.76
84578;BME280;74803;44.756;19.218;2024-02-26T04:35:32;99626.59;;;16.73;51.13
84578;BME280;74803;44.756;19.218;2024-02-26T04:37:57;99630.66;;;16.08;52.91
84578;BME280;74803;44.756;19.218;2024-02-26T04:40:23;99627.16;;;16.57;51.51
84578;BME280;74803;44.756;19.218;2024-02-26T04:42:49;99626.31;;;16.81;50.98
84578;BME280;74803;44.756;19.218;2024-02-26T04:45:15;99627.34;;;16.37;52.79
84578;BME280;74803;44.756;19.218;2024-02-26T04:47:41;99621.63;;;17.01;49.76
84578;BME280;74803;44.756;19.218;2024-02-26T04:50:07;99627.00;;;17.24;49.96
84578;BME280;74803;44.756;19.218;2024-02-26T04:52:32;99615.34;;;17.02;50.33
84578;BME280;74803;44.756;19.218;2024-02-26T04:54:58;99631.91;;;17.03;50.38
84578;BME280;74803;44.756;19.218;2024-02-26T04:57:26;99628.84;;;16.88;50.63
84578;BME280;74803;44.756;19.218;2024-02-26T04:59:52;99622.13;;;17.10;50.64
84578;BME280;74803;44.756;19.218;2024-02-26T05:02:17;99618.94;;;16.90;50.93
84578;BME280;74803;44.756;19.218;2024-02-26T05:04:43;99610.97;;;17.14;50.14
84578;BME280;74803;44.756;19.218;2024-02-26T05:07:09;99618.22;;;16.82;50.91
84578;BME280;74803;44.756;19.218;2024-02-26T05:09:35;99623.06;;;16.42;50.95
84578;BME280;74803;44.756;19.218;2024-02-26T05:12:00;99614.59;;;17.13;50.09
84578;BME280;74803;44.756;19.218;2024-02-26T05:14:26;99623.16;;;17.09;50.29
84578;BME280;74803;44.756;19.218;2024-02-26T05:16:51;99622.66;;;16.64;51.71
84578;BME280;74803;44.756;19.218;2024-02-26T05:19:17;99623.41;;;16.28;52.41
84578;BME280;74803;44.756;19.218;2024-02-26T05:21:43;99627.53;;;16.60;52.15
84578;BME280;74803;44.756;19.218;2024-02-26T05:24:09;99625.72;;;16.79;51.10
84578;BME280;74803;44.756;19.218;2024-02-26T05:26:35;99637.81;;;16.98;50.12
84578;BME280;74803;44.756;19.218;2024-02-26T05:29:02;99640.72;;;17.08;50.17
84578;BME280;74803;44.756;19.218;2024-02-26T05:31:27;99637.88;;;17.10;50.15
84578;BME280;74803;44.756;19.218;2024-02-26T05:33:54;99634.38;;;17.46;49.26
84578;BME280;74803;44.756;19.218;2024-02-26T05:36:23;99633.16;;;15.96;52.95
84578;BME280;74803;44.756;19.218;2024-02-26T05:38:49;99631.41;;;15.59;54.42
84578;BME280;74803;44.756;19.218;2024-02-26T05:41:16;99639.53;;;16.50;52.67
84578;BME280;74803;44.756;19.218;2024-02-26T05:43:41;99635.34;;;16.85;50.65
84578;BME280;74803;44.756;19.218;2024-02-26T05:46:07;99636.13;;;17.04;50.24
84578;BME280;74803;44.756;19.218;2024-02-26T05:48:33;99633.03;;;16.09;52.68
84578;BME280;74803;44.756;19.218;2024-02-26T05:50:59;99637.25;;;16.10;53.00
84578;BME280;74803;44.756;19.218;2024-02-26T05:53:26;99636.97;;;16.18;53.26
84578;BME280;74803;44.756;19.218;2024-02-26T05:55:53;99645.53;;;15.82;53.70
84578;BME280;74803;44.756;19.218;2024-02-26T05:58:19;99646.00;;;15.73;54.19
84578;BME280;74803;44.756;19.218;2024-02-26T06:00:44;99650.53;;;15.84;53.76
84578;BME280;74803;44.756;19.218;2024-02-26T06:03:10;99656.88;;;16.51;51.69
84578;BME280;74803;44.756;19.218;2024-02-26T06:05:36;99652.97;;;17.44;49.25
84578;BME280;74803;44.756;19.218;2024-02-26T06:08:02;99652.09;;;17.50;49.11
84578;BME280;74803;44.756;19.218;2024-02-26T06:10:28;99662.56;;;16.23;52.48
84578;BME280;74803;44.756;19.218;2024-02-26T06:12:54;99658.53;;;16.45;52.22
84578;BME280;74803;44.756;19.218;2024-02-26T06:15:20;99659.34;;;15.96;53.73
84578;BME280;74803;44.756;19.218;2024-02-26T06:17:48;99667.41;;;16.19;53.42
84578;BME280;74803;44.756;19.218;2024-02-26T06:20:14;99659.19;;;16.16;53.21
84578;BME280;74803;44.756;19.218;2024-02-26T06:22:40;99665.81;;;16.86;51.52
84578;BME280;74803;44.756;19.218;2024-02-26T06:25:07;99662.44;;;16.97;50.74
84578;BME280;74803;44.756;19.218;2024-02-26T06:27:33;99679.75;;;16.87;51.40
84578;BME280;74803;44.756;19.218;2024-02-26T06:30:01;99671.91;;;16.98;50.50
84578;BME280;74803;44.756;19.218;2024-02-26T06:32:27;99679.34;;;16.15;52.74
84578;BME280;74803;44.756;19.218;2024-02-26T06:35:34;99678.16;;;17.34;51.10
84578;BME280;74803;44.756;19.218;2024-02-26T06:38:08;99677.84;;;16.51;52.56
84578;BME280;74803;44.756;19.218;2024-02-26T06:40:34;99677.38;;;17.15;51.29
84578;BME280;74803;44.756;19.218;2024-02-26T06:43:03;99674.22;;;17.61;49.73
84578;BME280;74803;44.756;19.218;2024-02-26T06:45:29;99682.81;;;17.02;51.35
84578;BME280;74803;44.756;19.218;2024-02-26T06:47:55;99678.47;;;17.07;50.96
84578;BME280;74803;44.756;19.218;2024-02-26T06:50:28;99682.63;;;17.93;49.43
84578;BME280;74803;44.756;19.218;2024-02-26T06:53:00;99677.56;;;18.56;47.75
84578;BME280;74803;44.756;19.218;2024-02-26T06:55:26;99677.66;;;18.15;49.45
84578;BME280;74803;44.756;19.218;2024-02-26T06:57:52;99679.03;;;18.75;47.20
84578;BME280;74803;44.756;19.218;2024-02-26T07:00:17;99682.78;;;19.03;46.02
84578;BME280;74803;44.756;19.218;2024-02-26T07:02:46;99669.63;;;18.91;47.42
84578;BME280;74803;44.756;19.218;2024-02-26T07:05:15;99667.47;;;18.88;47.45
84578;BME280;74803;44.756;19.218;2024-02-26T07:07:41;99676.56;;;19.20;45.75
84578;BME280;74803;44.756;19.218;2024-02-26T07:10:09;99685.31;;;18.86;46.68
84578;BME280;74803;44.756;19.218;2024-02-26T07:12:38;99688.47;;;19.23;46.09
84578;BME280;74803;44.756;19.218;2024-02-26T07:15:04;99681.59;;;19.78;45.18
84578;BME280;74803;44.756;19.218;2024-02-26T07:17:30;99680.50;;;19.46;45.72
84578;BME280;74803;44.756;19.218;2024-02-26T07:19:56;99694.25;;;18.85;48.16
84578;BME280;74803;44.756;19.218;2024-02-26T07:22:23;99689.50;;;19.22;47.31
84578;BME280;74803;44.756;19.218;2024-02-26T07:24:57;99686.81;;;18.82;47.27
84578;BME280;74803;44.756;19.218;2024-02-26T07:27:31;99681.16;;;19.13;46.14
84578;BME280;74803;44.756;19.218;2024-02-26T07:29:57;99681.19;;;18.08;49.40
84578;BME280;74803;44.756;19.218;2024-02-26T07:32:23;99684.25;;;19.50;46.58
84578;BME280;74803;44.756;19.218;2024-02-26T07:34:49;99686.47;;;20.32;44.55
84578;BME280;74803;44.756;19.218;2024-02-26T07:37:15;99686.06;;;20.40;44.53
84578;BME280;74803;44.756;19.218;2024-02-26T07:39:40;99688.09;;;20.04;45.45
84578;BME280;74803;44.756;19.218;2024-02-26T07:42:06;99690.19;;;19.17;47.11
84578;BME280;74803;44.756;19.218;2024-02-26T07:44:37;99690.25;;;18.47;49.31
84578;BME280;74803;44.756;19.218;2024-02-26T07:47:04;99702.97;;;18.62;48.99
84578;BME280;74803;44.756;19.218;2024-02-26T07:49:31;99697.13;;;19.47;46.87
84578;BME280;74803;44.756;19.218;2024-02-26T07:52:02;99701.16;;;19.66;46.74
84578;BME280;74803;44.756;19.218;2024-02-26T07:54:28;99694.81;;;20.28;45.62
84578;BME280;74803;44.756;19.218;2024-02-26T07:56:58;99698.91;;;20.19;46.25
84578;BME280;74803;44.756;19.218;2024-02-26T07:59:24;99695.44;;;19.86;47.11
84578;BME280;74803;44.756;19.218;2024-02-26T08:01:50;99691.66;;;19.65;47.44
84578;BME280;74803;44.756;19.218;2024-02-26T08:04:16;99703.84;;;19.82;46.98
84578;BME280;74803;44.756;19.218;2024-02-26T08:06:43;99686.81;;;19.45;47.94
84578;BME280;74803;44.756;19.218;2024-02-26T08:09:09;99698.56;;;19.54;48.20
84578;BME280;74803;44.756;19.218;2024-02-26T08:11:34;99694.59;;;20.63;45.74
84578;BME280;74803;44.756;19.218;2024-02-26T08:14:01;99688.59;;;20.01;46.68
84578;BME280;74803;44.756;19.218;2024-02-26T08:16:29;99687.66;;;20.41;46.79
84578;BME280;74803;44.756;19.218;2024-02-26T08:18:56;99698.25;;;20.62;46.79
84578;BME280;74803;44.756;19.218;2024-02-26T08:21:43;99694.25;;;20.98;45.42
84578;BME280;74803;44.756;19.218;2024-02-26T08:24:12;99691.06;;;20.75;45.76
84578;BME280;74803;44.756;19.218;2024-02-26T08:26:37;99700.81;;;20.57;46.60
84578;BME280;74803;44.756;19.218;2024-02-26T08:29:03;99696.91;;;20.60;46.92
84578;BME280;74803;44.756;19.218;2024-02-26T08:31:29;99698.69;;;20.38;47.69
84578;BME280;74803;44.756;19.218;2024-02-26T08:33:55;99703.22;;;21.14;46.06
84578;BME280;74803;44.756;19.218;2024-02-26T08:36:23;99702.19;;;20.98;47.15
84578;BME280;74803;44.756;19.218;2024-02-26T08:38:48;99701.72;;;21.72;43.95
84578;BME280;74803;44.756;19.218;2024-02-26T08:41:17;99703.00;;;20.99;46.79
84578;BME280;74803;44.756;19.218;2024-02-26T08:43:45;99692.66;;;21.89;43.99
84578;BME280;74803;44.756;19.218;2024-02-26T08:46:12;99696.00;;;21.80;44.92
84578;BME280;74803;44.756;19.218;2024-02-26T08:48:39;99692.75;;;21.24;45.99
84578;BME280;74803;44.756;19.218;2024-02-26T08:51:05;99690.72;;;22.12;44.23
84578;BME280;74803;44.756;19.218;2024-02-26T08:53:52;99688.69;;;22.19;44.09
84578;BME280;74803;44.756;19.218;2024-02-26T08:56:20;99693.63;;;21.57;44.71
84578;BME280;74803;44.756;19.218;2024-02-26T08:58:48;99692.78;;;22.00;44.15
84578;BME280;74803;44.756;19.218;2024-02-26T09:01:19;99698.13;;;21.83;43.87
84578;BME280;74803;44.756;19.218;2024-02-26T09:03:45;99697.56;;;22.76;42.73
84578;BME280;74803;44.756;19.218;2024-02-26T09:06:15;99696.66;;;22.24;42.82
84578;BME280;74803;44.756;19.218;2024-02-26T09:08:42;99694.69;;;22.09;43.54
84578;BME280;74803;44.756;19.218;2024-02-26T09:11:08;99692.09;;;22.56;43.18
84578;BME280;74803;44.756;19.218;2024-02-26T09:13:38;99687.84;;;22.50;42.87
84578;BME280;74803;44.756;19.218;2024-02-26T09:16:06;99694.41;;;22.43;43.01
84578;BME280;74803;44.756;19.218;2024-02-26T09:18:33;99696.97;;;22.01;43.25
84578;BME280;74803;44.756;19.218;2024-02-26T09:21:04;99691.44;;;22.02;44.20
84578;BME280;74803;44.756;19.218;2024-02-26T09:23:30;99689.25;;;22.26;44.27
84578;BME280;74803;44.756;19.218;2024-02-26T09:25:55;99694.97;;;22.45;42.72
84578;BME280;74803;44.756;19.218;2024-02-26T09:28:22;99687.22;;;23.42;41.57
84578;BME280;74803;44.756;19.218;2024-02-26T09:30:49;99697.66;;;22.97;42.02
84578;BME280;74803;44.756;19.218;2024-02-26T09:33:16;99695.28;;;21.63;44.48
84578;BME280;74803;44.756;19.218;2024-02-26T09:35:42;99689.53;;;22.24;43.65
84578;BME280;74803;44.756;19.218;2024-02-26T09:38:10;99690.69;;;22.07;44.08
84578;BME280;74803;44.756;19.218;2024-02-26T09:40:36;99685.22;;;21.60;44.73
84578;BME280;74803;44.756;19.218;2024-02-26T09:43:05;99686.75;;;22.83;42.46
84578;BME280;74803;44.756;19.218;2024-02-26T09:45:32;99690.00;;;23.00;41.11
84578;BME280;74803;44.756;19.218;2024-02-26T09:47:58;99682.94;;;22.69;42.78
84578;BME280;74803;44.756;19.218;2024-02-26T09:50:28;99689.41;;;22.09;44.74
84578;BME280;74803;44.756;19.218;2024-02-26T09:52:54;99675.66;;;23.84;40.95
84578;BME280;74803;44.756;19.218;2024-02-26T09:55:25;99674.81;;;23.48;41.45
84578;BME280;74803;44.756;19.218;2024-02-26T09:57:54;99678.84;;;23.81;40.84
84578;BME280;74803;44.756;19.218;2024-02-26T10:00:21;99669.03;;;24.06;40.48
84578;BME280;74803;44.756;19.218;2024-02-26T10:02:47;99676.59;;;24.94;38.38
84578;BME280;74803;44.756;19.218;2024-02-26T10:05:17;99675.34;;;24.71;39.40
84578;BME280;74803;44.756;19.218;2024-02-26T10:07:46;99671.22;;;25.09;38.07
84578;BME280;74803;44.756;19.218;2024-02-26T10:10:14;99674.06;;;24.38;38.45
84578;BME280;74803;44.756;19.218;2024-02-26T10:12:41;99674.50;;;24.81;39.08
84578;BME280;74803;44.756;19.218;2024-02-26T10:15:07;99663.72;;;24.37;39.21
84578;BME280;74803;44.756;19.218;2024-02-26T10:17:33;99659.47;;;24.00;39.34
84578;BME280;74803;44.756;19.218;2024-02-26T10:20:18;99666.50;;;25.50;37.74
84578;BME280;74803;44.756;19.218;2024-02-26T10:22:47;99667.22;;;26.00;35.54
84578;BME280;74803;44.756;19.218;2024-02-26T10:25:23;99669.97;;;24.86;36.34
84578;BME280;74803;44.756;19.218;2024-02-26T10:27:55;99667.47;;;25.15;37.07
84578;BME280;74803;44.756;19.218;2024-02-26T10:30:23;99662.75;;;24.97;38.96
84578;BME280;74803;44.756;19.218;2024-02-26T10:32:52;99662.03;;;24.76;39.32
84578;BME280;74803;44.756;19.218;2024-02-26T10:35:20;99655.75;;;25.16;37.65
84578;BME280;74803;44.756;19.218;2024-02-26T10:37:48;99656.34;;;25.52;37.25
84578;BME280;74803;44.756;19.218;2024-02-26T10:40:15;99652.03;;;26.34;35.73
84578;BME280;74803;44.756;19.218;2024-02-26T10:42:42;99650.50;;;26.76;34.53
84578;BME280;74803;44.756;19.218;2024-02-26T10:45:09;99650.50;;;25.94;36.06
84578;BME280;74803;44.756;19.218;2024-02-26T10:47:36;99652.78;;;25.28;38.85
84578;BME280;74803;44.756;19.218;2024-02-26T10:50:08;99634.47;;;26.57;36.54
84578;BME280;74803;44.756;19.218;2024-02-26T10:52:35;99643.94;;;26.68;36.74
84578;BME280;74803;44.756;19.218;2024-02-26T10:55:05;99647.88;;;25.89;37.32
84578;BME280;74803;44.756;19.218;2024-02-26T10:57:42;99638.94;;;27.28;35.53
84578;BME280;74803;44.756;19.218;2024-02-26T11:00:13;99640.94;;;27.36;34.78
84578;BME280;74803;44.756;19.218;2024-02-26T11:02:41;99632.22;;;27.30;34.76
84578;BME280;74803;44.756;19.218;2024-02-26T11:05:07;99632.97;;;28.19;32.93
84578;BME280;74803;44.756;19.218;2024-02-26T11:07:35;99629.22;;;28.20;33.19
84578;BME280;74803;44.756;19.218;2024-02-26T11:10:03;99618.53;;;27.18;34.17
84578;BME280;74803;44.756;19.218;2024-02-26T11:12:33;99623.22;;;27.96;32.58
84578;BME280;74803;44.756;19.218;2024-02-26T11:15:03;99624.94;;;29.01;32.39
84578;BME280;74803;44.756;19.218;2024-02-26T11:17:36;99624.38;;;28.77;30.93
84578;BME280;74803;44.756;19.218;2024-02-26T11:20:04;99618.41;;;29.88;29.61
84578;BME280;74803;44.756;19.218;2024-02-26T11:22:30;99610.41;;;28.53;32.61
84578;BME280;74803;44.756;19.218;2024-02-26T11:24:57;99602.97;;;30.47;29.83
84578;BME280;74803;44.756;19.218;2024-02-26T11:27:54;99599.00;;;32.25;27.09
84578;BME280;74803;44.756;19.218;2024-02-26T11:30:30;99595.69;;;31.04;27.80
84578;BME280;74803;44.756;19.218;2024-02-26T11:33:01;99599.22;;;30.25;27.31
84578;BME280;74803;44.756;19.218;2024-02-26T11:35:28;99603.75;;;29.05;28.79
84578;BME280;74803;44.756;19.218;2024-02-26T11:37:55;99601.47;;;30.32;28.00
84578;BME280;74803;44.756;19.218;2024-02-26T11:40:44;99595.41;;;31.57;26.92
84578;BME280;74803;44.756;19.218;2024-02-26T11:43:15;99597.34;;;32.41;25.77
84578;BME280;74803;44.756;19.218;2024-02-26T11:45:49;99592.38;;;32.22;26.71
84578;BME280;74803;44.756;19.218;2024-02-26T11:48:22;99591.75;;;33.05;26.12
84578;BME280;74803;44.756;19.218;2024-02-26T11:50:53;99591.28;;;32.82;26.15
84578;BME280;74803;44.756;19.218;2024-02-26T11:53:28;99584.47;;;33.05;25.90
84578;BME280;74803;44.756;19.218;2024-02-26T11:56:33;99572.16;;;31.35;28.45
84578;BME280;74803;44.756;19.218;2024-02-26T11:59:08;99572.69;;;33.84;23.84
84578;BME280;74803;44.756;19.218;2024-02-26T12:01:46;99571.53;;;32.48;25.46
84578;BME280;74803;44.756;19.218;2024-02-26T12:04:42;99577.69;;;32.49;26.61
84578;BME280;74803;44.756;19.218;2024-02-26T12:07:12;99572.81;;;33.67;25.11
84578;BME280;74803;44.756;19.218;2024-02-26T12:09:39;99573.25;;;33.57;24.98
84578;BME280;74803;44.756;19.218;2024-02-26T12:12:10;99573.81;;;33.62;24.84
84578;BME280;74803;44.756;19.218;2024-02-26T12:14:56;99568.22;;;34.24;24.04
84578;BME280;74803;44.756;19.218;2024-02-26T12:17:23;99568.13;;;33.64;24.63
84578;BME280;74803;44.756;19.218;2024-02-26T12:19:49;99570.88;;;33.55;24.62
84578;BME280;74803;44.756;19.218;2024-02-26T12:22:16;99570.66;;;35.18;22.65
84578;BME280;74803;44.756;19.218;2024-02-26T12:24:45;99559.91;;;36.40;21.32
84578;BME280;74803;44.756;19.218;2024-02-26T12:27:11;99562.00;;;35.68;21.05
84578;BME280;74803;44.756;19.218;2024-02-26T12:29:37;99568.09;;;35.22;21.77
84578;BME280;74803;44.756;19.218;2024-02-26T12:32:04;99555.13;;;36.18;21.12
84578;BME280;74803;44.756;19.218;2024-02-26T12:34:30;99560.66;;;35.46;21.78
84578;BME280;74803;44.756;19.218;2024-02-26T12:37:09;99569.09;;;36.20;21.09
84578;BME280;74803;44.756;19.218;2024-02-26T12:39:44;99559.13;;;35.33;22.28
84578;BME280;74803;44.756;19.218;2024-02-26T12:42:11;99553.09;;;34.84;22.61
84578;BME280;74803;44.756;19.218;2024-02-26T12:44:37;99561.59;;;34.98;23.04
84578;BME280;74803;44.756;19.218;2024-02-26T12:47:04;99556.19;;;35.66;21.52
84578;BME280;74803;44.756;19.218;2024-02-26T12:49:30;99553.47;;;34.71;22.81
84578;BME280;74803;44.756;19.218;2024-02-26T12:51:55;99549.47;;;35.76;21.76
84578;BME280;74803;44.756;19.218;2024-02-26T12:54:33;99551.66;;;36.87;20.33